createdAt,value
2019-03-18T00:01:25.497Z,7.40
2019-03-18T00:04:01.219Z,7.30
2019-03-18T00:06:36.060Z,7.30
2019-03-18T00:09:10.891Z,7.40
2019-03-18T00:11:45.642Z,7.40
2019-03-18T00:14:20.769Z,7.40
2019-03-18T00:16:55.655Z,7.30
2019-03-18T00:19:30.424Z,7.30
2019-03-18T00:22:05.311Z,7.30
2019-03-18T00:24:40.093Z,7.30
2019-03-18T00:27:14.872Z,7.30
2019-03-18T00:29:49.651Z,7.30
2019-03-18T00:32:24.426Z,7.40
2019-03-18T00:34:59.171Z,7.30
2019-03-18T00:37:33.947Z,7.40
2019-03-18T00:40:10.092Z,7.40
2019-03-18T00:42:44.928Z,7.30
2019-03-18T00:45:20.824Z,7.30
2019-03-18T00:47:55.588Z,7.30
2019-03-18T00:50:30.345Z,7.30
2019-03-18T00:53:05.244Z,7.30
2019-03-18T00:55:40.071Z,7.30
2019-03-18T00:58:14.906Z,7.30
2019-03-18T01:00:49.832Z,7.40
2019-03-18T01:03:25.726Z,7.50
2019-03-18T01:06:00.490Z,7.50
2019-03-18T01:08:36.219Z,7.50
2019-03-18T01:11:11.062Z,7.50
2019-03-18T01:13:45.812Z,7.40
2019-03-18T01:16:20.588Z,7.50
2019-03-18T01:18:55.339Z,7.50
2019-03-18T01:21:30.188Z,7.50
2019-03-18T01:24:05.014Z,7.50
2019-03-18T01:26:39.788Z,7.60
2019-03-18T01:29:14.677Z,7.50
2019-03-18T01:31:49.540Z,7.50
2019-03-18T01:34:24.343Z,7.60
2019-03-18T01:36:59.117Z,7.60
2019-03-18T01:39:33.871Z,7.60
2019-03-18T01:42:08.718Z,7.60
2019-03-18T01:44:43.572Z,7.60
2019-03-18T01:47:18.331Z,7.60
2019-03-18T01:49:53.098Z,7.60
2019-03-18T01:52:27.994Z,7.70
2019-03-18T01:55:02.834Z,7.60
2019-03-18T01:57:37.676Z,7.60
2019-03-18T02:00:12.735Z,7.60
2019-03-18T02:02:47.567Z,7.60
2019-03-18T02:05:22.387Z,7.70
2019-03-18T02:07:57.140Z,7.60
2019-03-18T02:10:32.047Z,7.70
2019-03-18T02:13:06.830Z,7.60
2019-03-18T02:15:52.614Z,7.70
2019-03-18T02:18:18.059Z,7.60
2019-03-18T02:20:52.951Z,7.40
2019-03-18T02:23:27.731Z,7.50
2019-03-18T02:26:02.571Z,7.50
2019-03-18T02:28:37.412Z,7.40
2019-03-18T02:31:13.149Z,7.30
2019-03-18T02:33:47.927Z,7.30
2019-03-18T02:36:22.763Z,7.30
2019-03-18T02:38:57.690Z,7.20
2019-03-18T02:41:32.532Z,7.30
2019-03-18T02:44:07.368Z,7.20
2019-03-18T02:46:42.135Z,7.20
2019-03-18T02:49:16.915Z,7.10
2019-03-18T02:51:53.159Z,7.10
2019-03-18T02:54:28.319Z,7.00
2019-03-18T02:57:03.101Z,7.00
2019-03-18T02:59:38.020Z,7.00
2019-03-18T03:02:12.872Z,7.10
2019-03-18T03:04:47.794Z,6.90
2019-03-18T03:07:22.702Z,7.00
2019-03-18T03:09:57.540Z,7.00
2019-03-18T03:12:32.304Z,7.00
2019-03-18T03:15:07.780Z,6.90
2019-03-18T03:17:42.517Z,6.90
2019-03-18T03:20:17.567Z,6.90
2019-03-18T03:22:52.330Z,6.90
2019-03-18T03:25:27.062Z,7.10
2019-03-18T03:28:01.877Z,7.10
2019-03-18T03:30:36.699Z,7.00
2019-03-18T03:33:11.472Z,6.90
2019-03-18T03:35:46.247Z,6.90
2019-03-18T03:38:20.995Z,6.90
2019-03-18T03:40:55.978Z,6.90
2019-03-18T03:43:30.880Z,7.00
2019-03-18T03:46:05.624Z,7.00
2019-03-18T03:48:40.385Z,6.90
2019-03-18T03:51:15.107Z,7.00
2019-03-18T03:53:49.855Z,7.00
2019-03-18T03:56:24.855Z,7.10
2019-03-18T03:58:59.949Z,7.00
2019-03-18T04:01:34.677Z,6.90
2019-03-18T04:04:09.431Z,7.00
2019-03-18T04:06:44.298Z,6.90
2019-03-18T04:09:19.287Z,7.00
2019-03-18T04:11:54.091Z,7.10
2019-03-18T04:14:28.913Z,7.10
2019-03-18T04:17:03.834Z,7.10
2019-03-18T04:19:38.590Z,7.00
2019-03-18T04:22:13.304Z,7.00
2019-03-18T04:24:48.110Z,7.10
2019-03-18T04:27:24.741Z,7.00
2019-03-18T04:29:59.279Z,7.00
2019-03-18T04:32:34.101Z,7.20
2019-03-18T04:35:08.974Z,7.20
2019-03-18T04:37:43.803Z,7.10
2019-03-18T04:40:18.575Z,7.20
2019-03-18T04:42:53.326Z,7.20
2019-03-18T04:45:28.070Z,7.20
2019-03-18T04:48:02.798Z,7.20
2019-03-18T04:50:37.624Z,7.10
2019-03-18T04:53:12.357Z,7.20
2019-03-18T04:55:47.137Z,7.20
2019-03-18T04:58:21.911Z,7.20
2019-03-18T05:00:56.725Z,7.20
2019-03-18T05:03:31.507Z,7.20
2019-03-18T05:06:06.358Z,7.20
2019-03-18T05:08:41.083Z,7.10
2019-03-18T05:11:15.826Z,7.10
2019-03-18T05:13:50.575Z,7.00
2019-03-18T05:16:25.534Z,7.00
2019-03-18T05:19:01.224Z,7.00
2019-03-18T05:21:35.963Z,6.90
2019-03-18T05:24:10.723Z,7.00
2019-03-18T05:26:45.594Z,7.00
2019-03-18T05:29:20.406Z,7.10
2019-03-18T05:31:55.167Z,7.10
2019-03-18T05:34:30.318Z,7.00
2019-03-18T05:37:05.282Z,7.00
2019-03-18T05:39:40.002Z,7.10
2019-03-18T05:42:14.805Z,7.10
2019-03-18T05:44:49.707Z,6.90
2019-03-18T05:47:24.438Z,6.90
2019-03-18T05:49:59.228Z,6.90
2019-03-18T05:52:33.948Z,6.90
2019-03-18T05:55:08.894Z,6.80
2019-03-18T05:57:43.792Z,6.80
2019-03-18T06:00:18.618Z,6.70
2019-03-18T06:02:53.380Z,6.70
2019-03-18T06:05:28.198Z,6.80
2019-03-18T06:08:03.010Z,6.80
2019-03-18T06:10:37.915Z,6.70
2019-03-18T06:13:12.726Z,6.80
2019-03-18T06:15:47.466Z,6.70
2019-03-18T06:18:22.287Z,6.70
2019-03-18T06:20:57.047Z,6.80
2019-03-18T06:23:31.873Z,6.80
2019-03-18T06:26:06.728Z,6.80
2019-03-18T06:28:41.447Z,6.80
2019-03-18T06:31:16.261Z,6.70
2019-03-18T06:33:51.106Z,6.70
2019-03-18T06:36:26.828Z,6.80
2019-03-18T06:39:01.587Z,6.80
2019-03-18T06:41:37.698Z,6.80
2019-03-18T06:44:12.430Z,6.70
2019-03-18T06:46:47.207Z,6.70
2019-03-18T06:49:22.013Z,6.70
2019-03-18T06:51:56.867Z,6.70
2019-03-18T06:54:31.803Z,6.70
2019-03-18T06:57:06.631Z,6.80
2019-03-18T06:59:41.351Z,6.70
2019-03-18T07:02:16.087Z,6.70
2019-03-18T07:04:50.831Z,6.70
2019-03-18T07:07:25.552Z,6.70
2019-03-18T07:10:00.411Z,6.70
2019-03-18T07:12:35.287Z,6.70
2019-03-18T07:15:10.170Z,6.80
2019-03-18T07:17:45.989Z,6.80
2019-03-18T07:20:20.719Z,6.80
2019-03-18T07:22:55.447Z,6.90
2019-03-18T07:25:31.243Z,6.90
2019-03-18T07:28:07.054Z,7.00
2019-03-18T07:30:41.788Z,7.00
2019-03-18T07:33:16.558Z,6.90
2019-03-18T07:35:51.418Z,7.00
2019-03-18T07:38:26.169Z,7.00
2019-03-18T07:41:00.871Z,7.00
2019-03-18T07:43:35.610Z,7.00
2019-03-18T07:46:10.403Z,7.10
2019-03-18T07:48:45.222Z,7.20
2019-03-18T07:51:19.992Z,7.30
2019-03-18T07:53:54.730Z,7.20
2019-03-18T07:56:29.538Z,7.30
2019-03-18T07:59:04.272Z,7.20
2019-03-18T08:01:39.011Z,7.20
2019-03-18T08:04:13.754Z,7.20
2019-03-18T08:06:48.495Z,7.20
2019-03-18T08:09:23.350Z,7.20
2019-03-18T08:11:58.078Z,7.00
2019-03-18T08:14:32.804Z,6.90
2019-03-18T08:17:07.535Z,7.00
2019-03-18T08:19:43.331Z,7.10
2019-03-18T08:22:18.066Z,7.20
2019-03-18T08:24:52.882Z,7.40
2019-03-18T08:27:27.807Z,7.40
2019-03-18T08:30:02.593Z,7.30
2019-03-18T08:32:38.391Z,7.40
2019-03-18T08:35:13.291Z,7.40
2019-03-18T08:37:48.087Z,7.30
2019-03-18T08:40:22.830Z,7.30
2019-03-18T08:42:58.740Z,7.10
2019-03-18T08:45:33.471Z,6.80
2019-03-18T08:48:08.215Z,6.50
2019-03-18T08:50:43.003Z,6.50
2019-03-18T08:53:17.820Z,6.50
2019-03-18T08:55:52.544Z,6.40
2019-03-18T08:58:27.302Z,6.50
2019-03-18T09:01:02.123Z,6.40
2019-03-18T09:03:36.951Z,6.50
2019-03-18T09:06:11.680Z,6.50
2019-03-18T09:08:46.530Z,6.70
2019-03-18T09:11:21.247Z,6.60
2019-03-18T09:13:56.187Z,6.70
2019-03-18T09:16:30.986Z,6.80
2019-03-18T09:19:09.081Z,6.90
2019-03-18T09:21:42.322Z,6.90
2019-03-18T09:24:17.235Z,6.90
2019-03-18T09:27:01.782Z,7.00
2019-03-18T09:29:28.626Z,7.00
2019-03-18T09:32:03.551Z,7.10
2019-03-18T09:34:39.346Z,7.20
2019-03-18T09:37:14.095Z,7.20
2019-03-18T09:39:48.815Z,7.20
2019-03-18T09:42:23.575Z,7.20
2019-03-18T09:44:58.289Z,7.20
2019-03-18T09:47:33.099Z,7.10
2019-03-18T09:50:08.099Z,7.20
2019-03-18T09:52:42.839Z,7.30
2019-03-18T09:55:17.642Z,7.20
2019-03-18T09:57:52.395Z,7.30
2019-03-18T10:00:27.139Z,7.40
2019-03-18T10:03:01.884Z,7.60
2019-03-18T10:05:36.710Z,7.70
2019-03-18T10:08:11.524Z,7.70
2019-03-18T10:10:46.418Z,7.80
2019-03-18T10:13:21.168Z,7.90
2019-03-18T10:15:55.907Z,8.10
2019-03-18T10:18:30.643Z,8.10
2019-03-18T10:21:05.438Z,8.20
2019-03-18T10:23:40.174Z,8.30
2019-03-18T10:26:14.918Z,8.30
2019-03-18T10:28:49.653Z,8.40
2019-03-18T10:31:24.443Z,8.50
2019-03-18T10:33:59.206Z,8.60
2019-03-18T10:36:33.939Z,8.60
2019-03-18T10:39:08.871Z,8.70
2019-03-18T10:41:43.719Z,8.50
2019-03-18T10:44:18.531Z,8.60
2019-03-18T10:46:53.511Z,8.60
2019-03-18T10:49:28.305Z,8.50
2019-03-18T10:52:03.162Z,8.60
2019-03-18T10:54:38.020Z,8.60
2019-03-18T10:57:12.925Z,8.70
2019-03-18T10:59:47.672Z,8.60
2019-03-18T11:02:22.516Z,8.70
2019-03-18T11:04:57.342Z,8.60
2019-03-18T11:07:32.067Z,8.70
2019-03-18T11:10:07.359Z,8.60
2019-03-18T11:12:42.224Z,8.50
2019-03-18T11:15:18.219Z,8.40
2019-03-18T11:17:53.051Z,8.60
2019-03-18T11:20:27.794Z,8.60
2019-03-18T11:23:02.611Z,8.80
2019-03-18T11:25:38.355Z,9.20
2019-03-18T11:28:13.096Z,9.40
2019-03-18T11:30:47.933Z,9.50
2019-03-18T11:33:22.642Z,9.30
2019-03-18T11:35:57.447Z,9.30
2019-03-18T11:38:32.208Z,9.40
2019-03-18T11:41:07.091Z,9.40
2019-03-18T11:43:41.955Z,9.30
2019-03-18T11:46:16.846Z,9.40
2019-03-18T11:48:51.716Z,9.40
2019-03-18T11:51:26.442Z,9.40
2019-03-18T11:54:01.263Z,9.50
2019-03-18T11:56:36.042Z,9.50
2019-03-18T11:59:10.931Z,9.60
2019-03-18T12:01:45.675Z,9.80
2019-03-18T12:04:21.084Z,9.80
2019-03-18T12:06:55.809Z,9.80
2019-03-18T12:09:30.551Z,9.70
2019-03-18T12:12:06.467Z,9.80
2019-03-18T12:14:41.207Z,9.80
2019-03-18T12:17:16.000Z,9.70
2019-03-18T12:19:50.747Z,9.60
2019-03-18T12:22:25.546Z,9.60
2019-03-18T12:25:00.411Z,9.70
2019-03-18T12:27:35.283Z,9.80
2019-03-18T12:30:13.929Z,9.80
2019-03-18T12:32:48.842Z,9.80
2019-03-18T12:35:23.642Z,10.00
2019-03-18T12:37:58.615Z,10.00
2019-03-18T12:40:33.356Z,9.90
2019-03-18T12:43:08.178Z,9.70
2019-03-18T12:45:43.183Z,9.50
2019-03-18T12:48:17.964Z,9.50
2019-03-18T12:50:56.303Z,9.30
2019-03-18T12:53:29.662Z,9.10
2019-03-18T12:56:04.504Z,8.90
2019-03-18T12:58:39.775Z,8.90
2019-03-18T13:01:14.769Z,8.90
2019-03-18T13:03:49.574Z,8.90
2019-03-18T13:06:24.338Z,9.00
2019-03-18T13:08:59.055Z,9.00
2019-03-18T13:11:33.938Z,9.30
2019-03-18T13:14:08.786Z,9.40
2019-03-18T13:16:43.703Z,9.40
2019-03-18T13:19:18.466Z,9.50
2019-03-18T13:21:53.191Z,9.50
2019-03-18T13:24:27.931Z,9.60
2019-03-18T13:27:02.877Z,9.70
2019-03-18T13:29:37.618Z,9.80
2019-03-18T13:32:12.579Z,9.80
2019-03-18T13:34:47.346Z,10.00
2019-03-18T13:37:23.108Z,10.10
2019-03-18T13:39:57.898Z,10.10
2019-03-18T13:42:32.695Z,10.00
2019-03-18T13:45:09.978Z,9.80
2019-03-18T13:47:45.043Z,9.80
2019-03-18T13:50:20.004Z,9.80
2019-03-18T13:52:55.008Z,9.70
2019-03-18T13:55:29.960Z,9.70
2019-03-18T13:58:04.939Z,9.80
2019-03-18T14:00:39.806Z,9.90
2019-03-18T14:03:14.634Z,10.00
2019-03-18T14:05:49.383Z,10.00
2019-03-18T14:08:24.219Z,9.90
2019-03-18T14:10:59.098Z,9.90
2019-03-18T14:13:33.835Z,9.50
2019-03-18T14:16:08.658Z,9.50
2019-03-18T14:18:43.591Z,9.50
2019-03-18T14:21:18.410Z,9.50
2019-03-18T14:23:53.331Z,9.50
2019-03-18T14:26:28.145Z,9.60
2019-03-18T14:29:02.963Z,9.70
2019-03-18T14:31:38.932Z,9.70
2019-03-18T14:34:13.759Z,9.80
2019-03-18T14:36:48.571Z,9.70
2019-03-18T14:39:23.375Z,9.80
2019-03-18T14:41:58.108Z,9.80
2019-03-18T14:44:33.027Z,9.90
2019-03-18T14:47:07.819Z,10.10
2019-03-18T14:49:42.551Z,10.20
2019-03-18T14:52:17.391Z,10.30
2019-03-18T14:54:52.127Z,10.20
2019-03-18T14:57:26.860Z,10.40
2019-03-18T15:00:01.575Z,10.40
2019-03-18T15:02:37.943Z,10.60
2019-03-18T15:05:13.211Z,10.70
2019-03-18T15:07:48.098Z,10.80
2019-03-18T15:10:22.894Z,10.90
2019-03-18T15:12:57.640Z,10.90
2019-03-18T15:15:32.462Z,10.90
2019-03-18T15:18:07.347Z,10.90
2019-03-18T15:20:42.081Z,10.90
2019-03-18T15:23:16.814Z,10.90
2019-03-18T15:25:51.543Z,11.00
2019-03-18T15:28:26.342Z,11.30
2019-03-18T15:31:01.149Z,11.10
2019-03-18T15:33:35.889Z,11.10
2019-03-18T15:36:10.631Z,11.10
2019-03-18T15:38:45.515Z,11.20
2019-03-18T15:41:20.303Z,10.90
2019-03-18T15:43:55.062Z,10.90
2019-03-18T15:46:29.888Z,10.90
2019-03-18T15:49:04.785Z,11.10
2019-03-18T15:51:39.616Z,11.10
2019-03-18T15:54:14.431Z,11.10
2019-03-18T15:56:49.156Z,11.10
2019-03-18T15:59:24.947Z,11.10
2019-03-18T16:01:59.830Z,11.20
2019-03-18T16:04:34.676Z,11.20
2019-03-18T16:07:09.479Z,11.30
2019-03-18T16:09:44.224Z,11.20
2019-03-18T16:12:20.016Z,11.00
2019-03-18T16:14:54.755Z,10.90
2019-03-18T16:17:29.688Z,10.90
2019-03-18T16:20:05.002Z,10.80
2019-03-18T16:22:39.828Z,10.90
2019-03-18T16:25:14.711Z,11.00
2019-03-18T16:27:49.831Z,11.00
2019-03-18T16:30:24.615Z,11.00
2019-03-18T16:32:59.435Z,11.10
2019-03-18T16:35:34.236Z,11.10
2019-03-18T16:38:09.080Z,11.10
2019-03-18T16:40:43.886Z,10.90
2019-03-18T16:43:18.703Z,10.90
2019-03-18T16:45:53.428Z,10.90
2019-03-18T16:48:28.224Z,10.90
2019-03-18T16:51:03.047Z,10.80
2019-03-18T16:53:37.778Z,10.70
2019-03-18T16:56:12.671Z,10.60
2019-03-18T16:58:48.539Z,10.60
2019-03-18T17:01:23.343Z,10.60
2019-03-18T17:03:58.146Z,10.80
2019-03-18T17:06:33.023Z,10.80
2019-03-18T17:09:08.115Z,10.70
2019-03-18T17:11:42.838Z,10.60
2019-03-18T17:14:17.739Z,10.60
2019-03-18T17:16:52.466Z,10.60
2019-03-18T17:19:27.203Z,10.70
2019-03-18T17:22:02.014Z,10.70
2019-03-18T17:24:36.890Z,10.70
2019-03-18T17:27:11.607Z,10.70
2019-03-18T17:29:46.410Z,10.60
2019-03-18T17:32:21.222Z,10.60
2019-03-18T17:34:55.959Z,10.50
2019-03-18T17:37:30.710Z,10.50
2019-03-18T17:40:06.261Z,10.60
2019-03-18T17:42:42.067Z,10.60
2019-03-18T17:45:17.071Z,10.60
2019-03-18T17:47:52.882Z,10.60
2019-03-18T17:50:27.731Z,10.50
2019-03-18T17:53:28.480Z,10.40
2019-03-18T17:56:07.160Z,10.20
2019-03-18T17:58:42.636Z,10.00
2019-03-18T18:01:37.027Z,10.00
2019-03-18T18:04:13.287Z,10.00
2019-03-18T18:06:52.265Z,10.00
2019-03-18T18:09:27.512Z,10.00
2019-03-18T18:12:23.463Z,10.00
2019-03-18T18:15:03.314Z,9.90
2019-03-18T18:17:38.764Z,9.90
2019-03-18T18:20:15.402Z,9.90
2019-03-18T18:22:50.371Z,9.80
2019-03-18T18:25:25.803Z,9.70
2019-03-18T18:28:01.245Z,9.70
2019-03-18T18:30:58.120Z,9.80
2019-03-18T18:33:52.509Z,9.70
2019-03-18T18:36:27.316Z,9.60
2019-03-18T18:39:02.433Z,9.60
2019-03-18T18:41:38.315Z,9.70
2019-03-18T18:44:13.083Z,9.60
2019-03-18T18:46:47.871Z,9.50
2019-03-18T18:49:22.698Z,9.50
2019-03-18T18:51:57.503Z,9.50
2019-03-18T18:54:32.439Z,9.40
2019-03-18T18:57:08.319Z,9.50
2019-03-18T18:59:43.594Z,9.40
2019-03-18T19:02:18.462Z,9.30
2019-03-18T19:04:53.241Z,9.10
2019-03-18T19:07:28.138Z,9.00
2019-03-18T19:10:02.890Z,9.00
2019-03-18T19:12:38.768Z,8.80
2019-03-18T19:15:16.179Z,9.00
2019-03-18T19:17:50.983Z,8.80
2019-03-18T19:20:25.840Z,8.80
2019-03-18T19:23:00.647Z,8.80
2019-03-18T19:25:35.518Z,8.70
2019-03-18T19:28:10.347Z,8.60
2019-03-18T19:30:45.100Z,8.70
2019-03-18T19:33:19.896Z,8.70
2019-03-18T19:35:58.020Z,8.70
2019-03-18T19:38:32.854Z,8.70
2019-03-18T19:41:07.731Z,8.60
2019-03-18T19:43:42.465Z,8.60
2019-03-18T19:46:20.658Z,8.50
2019-03-18T19:48:55.464Z,8.50
2019-03-18T19:51:30.231Z,8.60
2019-03-18T19:54:05.210Z,8.60
2019-03-18T19:56:40.086Z,8.50
2019-03-18T19:59:14.923Z,8.60
2019-03-18T20:01:49.794Z,8.60
2019-03-18T20:04:24.555Z,8.50
2019-03-18T20:06:59.447Z,8.50
2019-03-18T20:09:34.222Z,8.30
2019-03-18T20:12:09.060Z,8.30
2019-03-18T20:14:43.879Z,8.40
2019-03-18T20:17:18.818Z,8.40
2019-03-18T20:19:53.615Z,8.40
2019-03-18T20:22:28.403Z,8.40
2019-03-18T20:25:03.511Z,8.50
2019-03-18T20:27:38.467Z,8.40
2019-03-18T20:30:14.768Z,8.50
2019-03-18T20:32:49.676Z,8.50
2019-03-18T20:35:24.567Z,8.40
2019-03-18T20:37:59.394Z,8.30
2019-03-18T20:40:34.279Z,8.40
2019-03-18T20:43:08.990Z,8.30
2019-03-18T20:45:43.806Z,8.40
2019-03-18T20:48:21.822Z,8.40
2019-03-18T20:50:56.816Z,8.30
2019-03-18T20:53:32.836Z,8.40
2019-03-18T20:56:07.584Z,8.30
2019-03-18T20:58:42.581Z,8.30
2019-03-18T21:01:17.441Z,8.30
2019-03-18T21:03:52.180Z,8.20
2019-03-18T21:06:26.986Z,8.20
2019-03-18T21:09:08.073Z,8.20
2019-03-18T21:11:42.871Z,8.20
2019-03-18T21:14:18.130Z,8.20
2019-03-18T21:16:59.072Z,8.10
2019-03-18T21:19:33.835Z,8.00
2019-03-18T21:22:09.844Z,8.00
2019-03-18T21:24:44.561Z,8.00
2019-03-18T21:27:19.294Z,7.90
2019-03-18T21:29:54.107Z,9.10
2019-03-18T21:32:28.928Z,8.70
2019-03-18T21:35:03.751Z,8.50
2019-03-18T21:37:38.524Z,8.40
2019-03-18T21:40:13.779Z,8.30
2019-03-18T21:42:48.659Z,8.30
2019-03-18T21:45:23.921Z,8.30
2019-03-18T21:47:59.004Z,8.20
2019-03-18T21:50:33.774Z,8.10
2019-03-18T21:53:08.577Z,8.00
2019-03-18T21:55:43.387Z,8.10
2019-03-18T21:58:18.186Z,8.10
2019-03-18T22:00:58.931Z,8.10
2019-03-18T22:03:33.742Z,8.10
2019-03-18T22:06:08.479Z,8.10
2019-03-18T22:08:43.239Z,8.10
2019-03-18T22:11:17.951Z,8.20
2019-03-18T22:13:52.687Z,8.30
2019-03-18T22:16:33.444Z,8.30
2019-03-18T22:19:08.181Z,8.40
2019-03-18T22:21:43.010Z,8.30
2019-03-18T22:24:17.810Z,8.40
2019-03-18T22:26:52.546Z,8.30
2019-03-18T22:29:27.295Z,8.30
2019-03-18T22:32:02.044Z,8.30
2019-03-18T22:34:42.746Z,8.30
2019-03-18T22:37:17.558Z,8.20
2019-03-18T22:39:52.270Z,8.30
2019-03-18T22:42:27.087Z,8.30
2019-03-18T22:45:01.804Z,8.20
2019-03-18T22:47:36.542Z,8.30
2019-03-18T22:50:11.555Z,8.30
2019-03-18T22:52:46.282Z,8.30
2019-03-18T22:55:21.003Z,8.30
2019-03-18T22:57:55.738Z,8.30
2019-03-18T23:00:39.034Z,8.20
2019-03-18T23:03:13.908Z,8.40
2019-03-18T23:05:48.768Z,8.40
2019-03-18T23:08:23.499Z,8.30
2019-03-18T23:10:58.235Z,8.30
2019-03-18T23:13:32.968Z,8.40
2019-03-18T23:16:08.011Z,8.40
2019-03-18T23:18:42.858Z,8.40
2019-03-18T23:21:17.652Z,8.40
2019-03-18T23:23:52.456Z,8.40
2019-03-18T23:26:27.240Z,8.40
2019-03-18T23:29:02.122Z,8.40
2019-03-18T23:31:36.950Z,8.40
2019-03-18T23:34:11.779Z,8.50
2019-03-18T23:36:47.486Z,8.40
2019-03-18T23:39:22.211Z,8.40
2019-03-18T23:41:56.983Z,8.40
2019-03-18T23:44:32.743Z,8.50
2019-03-18T23:47:07.564Z,8.40
2019-03-18T23:49:42.298Z,8.40
2019-03-18T23:52:17.019Z,8.50
2019-03-18T23:54:51.751Z,8.50
2019-03-18T23:57:30.742Z,8.40
